createdAt,value
2023-01-13T00:01:26.957Z,99432.16
2023-01-13T00:03:55.587Z,99436.99
2023-01-13T00:06:29.243Z,99430.77
2023-01-13T00:08:57.806Z,99427.64
2023-01-13T00:11:26.313Z,99427.62
2023-01-13T00:13:54.450Z,99426.05
2023-01-13T00:16:22.237Z,99424.65
2023-01-13T00:18:52.979Z,99421.72
2023-01-13T00:21:23.672Z,99421.36
2023-01-13T00:23:54.034Z,99422.05
2023-01-13T00:26:24.489Z,99415.98
2023-01-13T00:28:57.785Z,99415.11
2023-01-13T00:31:26.520Z,99409.75
2023-01-13T00:33:57.237Z,99408.20
2023-01-13T00:36:25.581Z,99404.37
2023-01-13T00:38:53.706Z,99401.95
2023-01-13T00:41:24.292Z,99405.05
2023-01-13T00:43:52.129Z,99404.71
2023-01-13T00:46:22.065Z,99407.15
2023-01-13T00:48:51.475Z,99405.11
2023-01-13T00:51:21.025Z,99404.75
2023-01-13T00:53:51.501Z,99404.39
2023-01-13T00:56:38.970Z,99403.50
2023-01-13T00:59:13.621Z,99402.10
2023-01-13T01:01:42.193Z,99398.31
2023-01-13T01:04:10.999Z,99396.44
2023-01-13T01:06:38.777Z,99400.14
2023-01-13T01:09:07.037Z,99391.75
2023-01-13T01:11:34.957Z,99389.91
2023-01-13T01:14:07.426Z,99387.48
2023-01-13T01:16:35.448Z,99388.10
2023-01-13T01:19:03.888Z,99385.62
2023-01-13T01:21:33.072Z,99389.67
2023-01-13T01:24:03.598Z,99383.88
2023-01-13T01:26:31.915Z,99381.35
2023-01-13T01:29:02.165Z,99375.33
2023-01-13T01:31:32.518Z,99373.10
2023-01-13T01:34:01.324Z,99370.23
2023-01-13T01:36:31.939Z,99363.90
2023-01-13T01:39:00.390Z,99365.17
2023-01-13T01:41:32.029Z,99362.46
2023-01-13T01:44:06.672Z,99359.09
2023-01-13T01:46:50.664Z,99355.16
2023-01-13T01:49:25.239Z,99351.23
2023-01-13T01:51:55.885Z,99342.94
2023-01-13T01:54:28.607Z,99338.10
2023-01-13T01:56:56.539Z,99339.14
2023-01-13T01:59:27.291Z,99335.51
2023-01-13T02:01:55.167Z,99335.69
2023-01-13T02:04:30.255Z,99331.89
2023-01-13T02:06:58.185Z,99332.06
2023-01-13T02:09:27.024Z,99328.60
2023-01-13T02:12:10.770Z,99331.35
2023-01-13T02:14:39.239Z,99325.08
2023-01-13T02:23:39.447Z,99315.91
2023-01-13T02:29:48.296Z,99310.25
2023-01-13T02:32:29.086Z,99304.58
2023-01-13T02:35:23.109Z,99305.33
2023-01-13T02:37:51.750Z,99301.41
2023-01-13T02:40:29.293Z,99298.17
2023-01-13T02:43:21.660Z,99296.45
2023-01-13T02:46:03.315Z,99293.34
2023-01-13T02:48:32.193Z,99293.16
2023-01-13T02:51:10.553Z,99288.66
2023-01-13T02:53:48.356Z,99281.23
2023-01-13T02:56:18.086Z,99282.27
2023-01-13T02:58:47.113Z,99277.95
2023-01-13T03:01:14.874Z,99278.65
2023-01-13T03:03:43.852Z,99276.59
2023-01-13T03:06:45.527Z,99274.71
2023-01-13T03:09:45.319Z,99270.58
2023-01-13T03:12:21.308Z,99272.48
2023-01-13T03:15:10.584Z,99269.90
2023-01-13T03:18:13.715Z,99268.13
2023-01-13T03:20:56.398Z,99265.86
2023-01-13T03:23:39.033Z,99266.22
2023-01-13T03:26:34.727Z,99260.15
2023-01-13T03:29:13.077Z,99263.90
2023-01-13T03:31:53.773Z,99260.48
2023-01-13T03:34:25.381Z,99261.34
2023-01-13T03:37:06.887Z,99258.75
2023-01-13T03:39:41.811Z,99257.86
2023-01-13T03:42:25.195Z,99262.16
2023-01-13T03:44:56.299Z,99257.66
2023-01-13T03:47:33.968Z,99260.76
2023-01-13T03:50:11.086Z,99255.55
2023-01-13T03:52:50.539Z,99255.52
2023-01-13T03:55:27.358Z,99256.38
2023-01-13T03:58:10.923Z,99255.88
2023-01-13T04:00:46.589Z,99256.05
2023-01-13T04:03:25.110Z,99251.38
2023-01-13T04:06:09.700Z,99251.01
2023-01-13T04:08:52.444Z,99260.50
2023-01-13T04:11:36.141Z,99258.23
2023-01-13T04:14:06.438Z,99257.88
2023-01-13T04:16:36.287Z,99256.96
2023-01-13T04:19:06.433Z,99248.47
2023-01-13T04:21:40.364Z,99252.74
2023-01-13T04:24:08.787Z,99255.48
2023-01-13T04:26:36.405Z,99254.95
2023-01-13T04:29:04.280Z,99248.90
2023-01-13T04:31:31.943Z,99246.30
2023-01-13T04:33:59.631Z,99245.44
2023-01-13T04:36:30.062Z,99248.72
2023-01-13T04:38:57.712Z,99246.46
2023-01-13T04:41:25.414Z,99244.58
2023-01-13T04:43:53.116Z,99248.21
2023-01-13T04:46:20.864Z,99247.21
2023-01-13T04:48:48.483Z,99245.70
2023-01-13T04:51:16.069Z,99243.83
2023-01-13T04:53:43.666Z,99246.26
2023-01-13T04:56:11.270Z,99248.73
2023-01-13T04:58:38.897Z,99245.80
2023-01-13T05:01:07.190Z,99250.14
2023-01-13T05:03:34.798Z,99247.38
2023-01-13T05:06:02.614Z,99252.22
2023-01-13T05:08:30.263Z,99245.86
2023-01-13T05:11:00.605Z,99246.58
2023-01-13T05:13:44.173Z,99248.46
2023-01-13T05:16:28.241Z,99244.52
2023-01-13T05:18:55.954Z,99242.42
2023-01-13T05:21:39.508Z,99244.14
2023-01-13T05:24:26.128Z,99248.47
2023-01-13T05:26:53.760Z,99246.94
2023-01-13T05:29:21.581Z,99246.43
2023-01-13T05:31:49.149Z,99245.59
2023-01-13T05:34:16.821Z,99246.44
2023-01-13T05:36:44.356Z,99249.89
2023-01-13T05:39:11.972Z,99253.52
2023-01-13T05:41:54.458Z,99251.59
2023-01-13T05:44:22.067Z,99252.46
2023-01-13T05:46:49.874Z,99257.30
2023-01-13T05:49:17.508Z,99259.19
2023-01-13T05:51:45.099Z,99256.04
2023-01-13T05:54:12.769Z,99258.45
2023-01-13T05:56:40.389Z,99260.33
2023-01-13T05:59:07.965Z,99259.46
2023-01-13T06:01:37.264Z,99260.15
2023-01-13T06:04:05.231Z,99260.14
2023-01-13T06:06:32.870Z,99266.87
2023-01-13T06:09:00.452Z,99267.04
2023-01-13T06:11:28.016Z,99268.23
2023-01-13T06:13:55.608Z,99269.92
2023-01-13T06:16:23.200Z,99266.98
2023-01-13T06:18:50.836Z,99266.27
2023-01-13T06:21:18.387Z,99266.60
2023-01-13T06:23:46.201Z,99268.48
2023-01-13T06:26:19.614Z,99271.20
2023-01-13T06:28:47.215Z,99265.13
2023-01-13T06:31:14.865Z,99270.46
2023-01-13T06:33:55.192Z,99273.02
2023-01-13T06:36:29.493Z,99276.12
2023-01-13T06:39:02.007Z,99274.90
2023-01-13T06:41:48.229Z,99272.83
2023-01-13T06:44:15.895Z,99281.62
2023-01-13T06:46:43.700Z,99275.22
2023-01-13T06:49:11.407Z,99276.73
2023-01-13T06:51:38.971Z,99275.84
2023-01-13T06:54:06.803Z,99273.40
2023-01-13T06:56:34.765Z,99273.90
2023-01-13T06:59:02.421Z,99274.56
2023-01-13T07:01:33.734Z,99274.20
2023-01-13T07:04:02.642Z,99276.77
2023-01-13T07:06:30.897Z,99268.95
2023-01-13T07:08:59.119Z,99279.13
2023-01-13T07:11:27.013Z,99284.11
2023-01-13T07:14:10.717Z,99283.20
2023-01-13T07:16:38.457Z,99280.75
2023-01-13T07:19:06.063Z,99284.89
2023-01-13T07:21:33.840Z,99281.90
2023-01-13T07:24:01.466Z,99283.59
2023-01-13T07:27:09.607Z,99284.95
2023-01-13T07:29:37.822Z,99287.00
2023-01-13T07:32:06.988Z,99284.21
2023-01-13T07:34:35.094Z,99292.63
2023-01-13T07:37:02.901Z,99288.96
2023-01-13T07:39:30.641Z,99290.63
2023-01-13T07:42:14.313Z,99295.27
2023-01-13T07:44:42.186Z,99298.02
2023-01-13T07:47:12.365Z,99296.74
2023-01-13T07:49:40.518Z,99297.94
2023-01-13T07:52:09.046Z,99293.94
2023-01-13T07:54:41.057Z,99294.61
2023-01-13T07:57:09.354Z,99296.64
2023-01-13T07:59:37.100Z,99294.55
2023-01-13T08:02:05.176Z,99298.36
2023-01-13T08:04:34.001Z,99300.91
2023-01-13T08:07:01.584Z,99309.19
2023-01-13T08:09:29.356Z,99306.41
2023-01-13T08:12:13.165Z,99306.93
2023-01-13T08:14:40.945Z,99309.88
2023-01-13T08:17:09.886Z,99316.11
2023-01-13T08:19:38.472Z,99313.02
2023-01-13T08:22:06.300Z,99316.15
2023-01-13T08:24:34.288Z,99317.02
2023-01-13T08:27:02.258Z,99315.65
2023-01-13T08:29:29.981Z,99324.13
2023-01-13T08:31:57.506Z,99325.02
2023-01-13T08:34:25.273Z,99330.18
2023-01-13T08:36:52.882Z,99327.58
2023-01-13T08:39:20.721Z,99325.13
2023-01-13T08:42:04.545Z,99328.20
2023-01-13T08:44:33.277Z,99327.49
2023-01-13T08:47:00.978Z,99331.28
2023-01-13T08:49:29.143Z,99332.48
2023-01-13T08:51:57.158Z,99332.96
2023-01-13T08:54:27.631Z,99332.42
2023-01-13T08:56:57.365Z,99337.96
2023-01-13T08:59:25.405Z,99339.31
2023-01-13T09:01:53.191Z,99344.28
2023-01-13T09:04:24.620Z,99347.55
2023-01-13T09:06:52.245Z,99353.73
2023-01-13T09:09:19.859Z,99348.34
2023-01-13T09:12:04.583Z,99345.73
2023-01-13T09:14:34.961Z,99349.70
2023-01-13T09:17:03.429Z,99348.33
2023-01-13T09:19:31.210Z,99344.86
2023-01-13T09:21:59.079Z,99346.77
2023-01-13T09:24:26.749Z,99338.30
2023-01-13T09:26:54.609Z,99335.88
2023-01-13T09:29:22.770Z,99336.88
2023-01-13T09:31:50.450Z,99335.79
2023-01-13T09:34:35.352Z,99334.73
2023-01-13T09:37:04.233Z,99331.29
2023-01-13T09:39:36.287Z,99334.56
2023-01-13T09:42:35.967Z,99331.58
2023-01-13T09:45:22.579Z,99333.44
2023-01-13T09:47:59.927Z,99336.11
2023-01-13T09:50:38.409Z,99333.61
2023-01-13T09:53:16.636Z,99333.50
2023-01-13T09:55:45.621Z,99335.11
2023-01-13T09:58:18.535Z,99337.61
2023-01-13T10:01:03.476Z,99337.98
2023-01-13T10:03:33.654Z,99326.56
2023-01-13T10:06:17.338Z,99319.97
2023-01-13T10:08:47.692Z,99317.20
2023-01-13T10:11:35.798Z,99315.29
2023-01-13T10:14:22.575Z,99315.55
2023-01-13T10:16:52.927Z,99320.91
2023-01-13T10:19:33.211Z,99321.39
2023-01-13T10:22:23.031Z,99314.43
2023-01-13T10:25:22.630Z,99311.45
2023-01-13T10:27:56.248Z,99316.42
2023-01-13T10:30:31.714Z,99305.36
2023-01-13T10:33:02.190Z,99304.14
2023-01-13T10:35:49.723Z,99308.73
2023-01-13T10:38:27.796Z,99310.89
2023-01-13T10:41:05.148Z,99308.94
2023-01-13T10:43:36.278Z,99311.11
2023-01-13T10:46:16.287Z,99308.67
2023-01-13T10:49:01.571Z,99306.77
2023-01-13T10:51:38.510Z,99298.97
2023-01-13T10:54:22.253Z,99298.64
2023-01-13T10:57:10.511Z,99295.76
2023-01-13T10:59:38.029Z,99292.41
2023-01-13T11:02:24.303Z,99304.70
2023-01-13T11:04:53.326Z,99297.80
2023-01-13T11:07:40.074Z,99296.59
2023-01-13T11:10:31.166Z,99295.38
2023-01-13T11:13:05.299Z,99297.28
2023-01-13T11:16:04.832Z,99295.39
2023-01-13T11:19:13.111Z,99287.77
2023-01-13T11:21:49.596Z,99289.00
2023-01-13T11:24:40.205Z,99293.54
2023-01-13T11:27:39.671Z,99296.69
2023-01-13T11:30:10.026Z,99299.62
2023-01-13T11:32:46.326Z,99293.75
2023-01-13T11:35:20.749Z,99291.86
2023-01-13T11:37:56.138Z,99292.90
2023-01-13T11:40:23.828Z,99293.58
2023-01-13T11:43:18.297Z,99300.14
2023-01-13T11:45:54.210Z,99297.01
2023-01-13T11:48:29.652Z,99293.69
2023-01-13T11:51:05.286Z,99292.89
2023-01-13T11:53:54.265Z,99294.32
2023-01-13T11:56:44.430Z,99293.80
2023-01-13T11:59:32.231Z,99286.88
2023-01-13T12:02:20.844Z,99289.49
2023-01-13T12:05:16.731Z,99292.09
2023-01-13T12:08:18.292Z,99290.41
2023-01-13T12:11:07.073Z,99286.51
2023-01-13T12:13:51.596Z,99282.95
2023-01-13T12:16:26.927Z,99280.30
2023-01-13T12:19:11.100Z,99274.89
2023-01-13T12:21:48.880Z,99275.25
2023-01-13T12:24:42.788Z,99271.75
2023-01-13T12:27:40.700Z,99274.19
2023-01-13T12:30:48.383Z,99274.98
2023-01-13T12:33:50.887Z,99268.38
2023-01-13T12:36:43.443Z,99271.15
2023-01-13T12:39:48.994Z,99270.44
2023-01-13T12:42:56.604Z,99276.65
2023-01-13T12:45:29.543Z,99280.02
2023-01-13T12:48:01.641Z,99278.69
2023-01-13T12:50:29.515Z,99285.88
2023-01-13T12:53:21.314Z,99281.66
2023-01-13T12:55:53.121Z,99276.58
2023-01-13T12:58:28.928Z,99278.23
2023-01-13T13:01:14.474Z,99277.25
2023-01-13T13:04:02.544Z,99283.90
2023-01-13T13:06:31.521Z,99279.05
2023-01-13T13:09:18.590Z,99282.02
2023-01-13T13:12:05.932Z,99281.66
2023-01-13T13:14:37.031Z,99284.94
2023-01-13T13:17:32.861Z,99287.88
2023-01-13T13:20:03.245Z,99287.70
2023-01-13T13:22:44.331Z,99291.05
2023-01-13T13:25:28.144Z,99293.81
2023-01-13T13:28:09.734Z,99291.79
2023-01-13T13:30:44.077Z,99294.42
2023-01-13T13:33:42.721Z,99296.19
2023-01-13T13:36:26.775Z,99300.24
2023-01-13T13:39:44.719Z,99303.20
2023-01-13T13:42:34.441Z,99298.37
2023-01-13T13:45:27.165Z,99298.36
2023-01-13T13:47:54.920Z,99304.39
2023-01-13T13:50:23.715Z,99301.81
2023-01-13T13:53:08.647Z,99303.36
2023-01-13T13:55:36.754Z,99301.45
2023-01-13T13:58:05.796Z,99302.81
2023-01-13T14:00:35.962Z,99307.34
2023-01-13T14:03:29.489Z,99315.33
2023-01-13T14:06:03.447Z,99321.43
2023-01-13T14:08:35.626Z,99319.56
2023-01-13T14:11:29.760Z,99321.17
2023-01-13T14:14:07.096Z,99314.52
2023-01-13T14:16:37.706Z,99311.14
2023-01-13T14:19:05.674Z,99310.86
2023-01-13T14:21:33.755Z,99307.14
2023-01-13T14:24:20.520Z,99307.40
2023-01-13T14:26:51.967Z,99309.36
2023-01-13T14:29:24.356Z,99316.83
2023-01-13T14:31:54.798Z,99320.70
2023-01-13T14:34:33.451Z,99322.27
2023-01-13T14:37:03.225Z,99323.69
2023-01-13T14:42:35.607Z,99326.89
2023-01-13T14:45:24.765Z,99329.66
2023-01-13T14:47:54.057Z,99328.45
2023-01-13T14:53:51.829Z,99325.00
2023-01-13T14:56:43.108Z,99323.13
2023-01-13T14:59:46.122Z,99323.67
2023-01-13T15:02:30.923Z,99322.47
2023-01-13T15:05:22.543Z,99321.41
2023-01-13T15:08:12.844Z,99318.79
2023-01-13T15:11:01.661Z,99323.46
2023-01-13T15:13:29.275Z,99323.63
2023-01-13T15:16:00.579Z,99326.11
2023-01-13T15:18:28.265Z,99333.87
2023-01-13T15:20:56.049Z,99334.02
2023-01-13T15:23:24.047Z,99335.06
2023-01-13T15:25:51.759Z,99338.52
2023-01-13T15:28:25.271Z,99336.95
2023-01-13T15:30:55.328Z,99336.94
2023-01-13T15:33:23.175Z,99336.24
2023-01-13T15:36:02.148Z,99335.73
2023-01-13T15:38:29.754Z,99332.79
2023-01-13T15:40:57.411Z,99336.43
2023-01-13T15:43:40.969Z,99340.61
2023-01-13T15:46:36.219Z,99341.02
2023-01-13T15:49:37.582Z,99343.98
2023-01-13T15:52:32.429Z,99343.86
2023-01-13T15:54:59.995Z,99347.54
2023-01-13T15:57:34.493Z,99353.27
2023-01-13T16:00:08.018Z,99354.38
2023-01-13T16:02:35.635Z,99355.49
2023-01-13T16:05:04.260Z,99356.02
2023-01-13T16:07:32.056Z,99354.50
2023-01-13T16:10:02.018Z,99363.30
2023-01-13T16:12:29.655Z,99367.05
2023-01-13T16:14:57.972Z,99369.08
2023-01-13T16:17:29.606Z,99369.38
2023-01-13T16:19:57.176Z,99366.05
2023-01-13T16:22:24.771Z,99364.41
2023-01-13T16:24:52.387Z,99368.39
2023-01-13T16:27:22.989Z,99368.39
2023-01-13T16:29:52.535Z,99379.20
2023-01-13T16:32:21.067Z,99379.61
2023-01-13T16:34:49.562Z,99366.67
2023-01-13T16:37:27.243Z,99367.77
2023-01-13T16:39:55.185Z,99363.81
2023-01-13T16:42:23.140Z,99366.26
2023-01-13T16:44:52.769Z,99365.40
2023-01-13T16:47:23.743Z,99352.08
2023-01-13T16:49:51.529Z,99350.05
2023-01-13T16:52:19.218Z,99349.37
2023-01-13T16:54:46.884Z,99352.14
2023-01-13T16:57:15.088Z,99355.92
2023-01-13T16:59:42.840Z,99349.13
2023-01-13T17:02:16.324Z,99346.20
2023-01-13T17:04:44.919Z,99349.35
2023-01-13T17:07:16.716Z,99351.10
2023-01-13T17:09:44.413Z,99350.58
2023-01-13T17:12:12.059Z,99349.40
2023-01-13T17:14:40.132Z,99351.52
2023-01-13T17:17:22.959Z,99358.30
2023-01-13T17:19:51.620Z,99365.42
2023-01-13T17:22:20.305Z,99367.40
2023-01-13T17:24:48.813Z,99371.04
2023-01-13T17:27:18.520Z,99374.67
2023-01-13T17:29:46.215Z,99374.51
2023-01-13T17:32:22.908Z,99370.55
2023-01-13T17:34:51.721Z,99370.19
2023-01-13T17:37:19.488Z,99371.38
2023-01-13T17:39:48.358Z,99369.98
2023-01-13T17:42:16.086Z,99371.50
2023-01-13T17:44:44.057Z,99384.11
2023-01-13T17:47:11.752Z,99394.13
2023-01-13T17:49:39.639Z,99396.89
2023-01-13T17:52:07.512Z,99392.58
2023-01-13T17:54:35.799Z,99395.17
2023-01-13T17:57:04.165Z,99401.90
2023-01-13T17:59:31.872Z,99404.66
2023-01-13T18:01:59.681Z,99401.88
2023-01-13T18:04:30.720Z,99408.14
2023-01-13T18:06:58.401Z,99405.94
2023-01-13T18:09:26.689Z,99408.77
2023-01-13T18:11:54.317Z,99410.28
2023-01-13T18:14:22.496Z,99407.80
2023-01-13T18:16:51.116Z,99410.02
2023-01-13T18:19:34.993Z,99408.77
2023-01-13T18:22:18.719Z,99413.19
2023-01-13T18:25:02.360Z,99415.71
2023-01-13T18:27:35.860Z,99420.45
2023-01-13T18:30:07.240Z,99425.52
2023-01-13T18:32:36.039Z,99426.38
2023-01-13T18:37:56.170Z,99432.69
2023-01-13T18:40:24.157Z,99436.80
2023-01-13T18:42:52.192Z,99430.36
2023-01-13T18:45:25.763Z,99432.73
2023-01-13T18:48:00.065Z,99436.66
2023-01-13T18:50:30.868Z,99435.79
2023-01-13T18:53:01.390Z,99436.48
2023-01-13T18:55:29.312Z,99437.34
2023-01-13T18:57:57.781Z,99438.55
2023-01-13T19:00:27.046Z,99440.30
2023-01-13T19:03:12.738Z,99448.42
2023-01-13T19:05:42.872Z,99448.08
2023-01-13T19:08:11.378Z,99453.08
2023-01-13T19:10:39.639Z,99462.63
2023-01-13T19:13:07.310Z,99459.39
2023-01-13T19:15:41.668Z,99459.34
2023-01-13T19:18:09.457Z,99456.58
2023-01-13T19:20:38.156Z,99458.30
2023-01-13T19:23:08.191Z,99462.46
2023-01-13T19:25:37.003Z,99458.66
2023-01-13T19:28:05.850Z,99465.56
2023-01-13T19:30:33.619Z,99463.13
2023-01-13T19:33:01.408Z,99461.40
2023-01-13T19:35:29.603Z,99463.26
2023-01-13T19:38:00.402Z,99467.02
2023-01-13T19:40:28.198Z,99467.65
2023-01-13T19:43:11.787Z,99470.36
2023-01-13T19:45:39.868Z,99478.25
2023-01-13T19:48:08.376Z,99482.67
2023-01-13T19:50:38.640Z,99484.64
2023-01-13T19:53:07.664Z,99489.55
2023-01-13T19:55:35.440Z,99490.61
2023-01-13T19:58:03.904Z,99493.76
2023-01-13T20:00:31.985Z,99495.68
2023-01-13T20:03:03.664Z,99501.75
2023-01-13T20:05:31.396Z,99501.98
2023-01-13T20:07:59.200Z,99510.15
2023-01-13T20:10:30.125Z,99510.39
2023-01-13T20:12:58.036Z,99513.04
2023-01-13T20:15:25.657Z,99515.36
2023-01-13T20:17:53.341Z,99520.44
2023-01-13T20:20:21.176Z,99514.30
2023-01-13T20:22:49.658Z,99513.16
2023-01-13T20:25:18.739Z,99517.89
2023-01-13T20:27:48.022Z,99520.88
2023-01-13T20:30:16.126Z,99526.46
2023-01-13T20:32:44.524Z,99530.83
2023-01-13T20:35:12.283Z,99531.03
2023-01-13T20:37:44.462Z,99534.16
2023-01-13T20:40:15.751Z,99536.79
2023-01-13T20:42:46.466Z,99538.04
2023-01-13T20:45:19.737Z,99536.16
2023-01-13T20:47:47.475Z,99536.86
2023-01-13T20:50:16.113Z,99536.73
2023-01-13T20:52:44.334Z,99536.41
2023-01-13T20:55:13.015Z,99535.23
2023-01-13T20:57:42.849Z,99533.87
2023-01-13T21:00:11.236Z,99535.44
2023-01-13T21:02:41.814Z,99539.80
2023-01-13T21:05:10.122Z,99537.75
2023-01-13T21:07:38.197Z,99541.39
2023-01-13T21:10:07.930Z,99538.33
2023-01-13T21:12:51.540Z,99544.58
2023-01-13T21:15:22.759Z,99546.66
2023-01-13T21:18:07.721Z,99547.05
2023-01-13T21:20:37.767Z,99544.48
2023-01-13T21:23:05.912Z,99549.17
2023-01-13T21:25:35.498Z,99546.62
2023-01-13T21:28:05.653Z,99549.73
2023-01-13T21:30:35.472Z,99550.95
2023-01-13T21:33:04.200Z,99558.05
2023-01-13T21:35:32.113Z,99562.71
2023-01-13T21:37:59.760Z,99559.48
2023-01-13T21:40:27.445Z,99556.56
2023-01-13T21:43:11.040Z,99560.04
2023-01-13T21:45:55.256Z,99555.58
2023-01-13T21:48:22.893Z,99555.75
2023-01-13T21:50:50.534Z,99561.81
2023-01-13T21:53:18.153Z,99563.55
2023-01-13T21:55:51.287Z,99562.21
2023-01-13T21:58:19.072Z,99558.60
2023-01-13T22:00:49.251Z,99563.13
2023-01-13T22:03:18.748Z,99568.33
2023-01-13T22:05:52.713Z,99562.84
2023-01-13T22:08:20.287Z,99564.94
2023-01-13T22:11:03.895Z,99567.00
2023-01-13T22:13:48.131Z,99571.84
2023-01-13T22:16:16.699Z,99577.91
2023-01-13T22:18:44.408Z,99587.73
2023-01-13T22:21:12.111Z,99584.50
2023-01-13T22:23:39.736Z,99583.63
2023-01-13T22:26:08.322Z,99589.66
2023-01-13T22:28:51.395Z,99596.21
2023-01-13T22:31:23.881Z,99599.67
2023-01-13T22:33:53.635Z,99599.70
2023-01-13T22:36:24.281Z,99599.70
2023-01-13T22:38:56.944Z,99606.42
2023-01-13T22:41:24.589Z,99602.80
2023-01-13T22:43:52.224Z,99609.88
2023-01-13T22:46:19.902Z,99608.66
2023-01-13T22:48:49.667Z,99605.74
2023-01-13T22:51:19.304Z,99607.66
2023-01-13T22:53:46.955Z,99612.15
2023-01-13T22:56:20.103Z,99611.64
2023-01-13T22:58:48.955Z,99609.21
2023-01-13T23:01:17.850Z,99609.56
2023-01-13T23:03:48.061Z,99604.95
2023-01-13T23:06:18.137Z,99603.77
2023-01-13T23:08:47.073Z,99608.27
2023-01-13T23:11:17.482Z,99610.67
2023-01-13T23:13:46.209Z,99605.84
2023-01-13T23:16:18.088Z,99605.86
2023-01-13T23:18:48.169Z,99604.34
2023-01-13T23:21:20.325Z,99605.19
2023-01-13T23:23:48.627Z,99604.01
2023-01-13T23:26:17.864Z,99600.09
2023-01-13T23:28:45.607Z,99602.69
2023-01-13T23:31:20.909Z,99598.92
2023-01-13T23:33:49.031Z,99597.55
2023-01-13T23:36:23.590Z,99599.63
2023-01-13T23:38:52.730Z,99601.70
2023-01-13T23:41:22.918Z,99605.86
2023-01-13T23:43:53.892Z,99607.58
2023-01-13T23:46:22.171Z,99602.76
2023-01-13T23:48:51.154Z,99602.60
2023-01-13T23:51:21.397Z,99605.54
2023-01-13T23:53:50.493Z,99600.90
2023-01-13T23:56:21.676Z,99606.60
2023-01-13T23:58:50.168Z,99605.06
